createdAt,value
2017-09-10T00:00:43.927Z,2.97
2017-09-10T00:03:11.228Z,3.17
2017-09-10T00:05:38.527Z,3.53
2017-09-10T00:08:05.807Z,3.10
2017-09-10T00:10:33.106Z,3.30
2017-09-10T00:13:00.402Z,2.70
2017-09-10T00:15:27.720Z,3.57
2017-09-10T00:17:55.036Z,3.17
2017-09-10T00:20:22.321Z,3.40
2017-09-10T00:22:49.652Z,3.60
2017-09-10T00:25:16.967Z,3.77
2017-09-10T00:27:44.272Z,2.60
2017-09-10T00:30:11.553Z,3.00
2017-09-10T00:32:38.821Z,2.97
2017-09-10T00:35:06.138Z,2.80
2017-09-10T00:37:33.440Z,2.77
2017-09-10T00:40:00.704Z,2.90
2017-09-10T00:42:28.055Z,3.40
2017-09-10T00:44:55.368Z,2.83
2017-09-10T00:47:22.653Z,3.10
2017-09-10T00:49:49.936Z,2.90
2017-09-10T00:52:17.231Z,3.83
2017-09-10T00:54:44.515Z,4.00
2017-09-10T00:57:11.827Z,3.40
2017-09-10T00:59:39.100Z,2.70
2017-09-10T01:02:06.382Z,2.60
2017-09-10T01:04:33.689Z,2.60
2017-09-10T01:07:00.968Z,2.73
2017-09-10T01:09:28.280Z,3.10
2017-09-10T01:11:55.558Z,2.53
2017-09-10T01:14:22.864Z,2.53
2017-09-10T01:16:50.226Z,2.57
2017-09-10T01:19:17.523Z,2.70
2017-09-10T01:21:44.857Z,2.30
2017-09-10T01:24:12.156Z,1.80
2017-09-10T01:26:39.453Z,1.97
2017-09-10T01:29:06.777Z,2.20
2017-09-10T01:31:34.102Z,2.17
2017-09-10T01:34:01.424Z,2.83
2017-09-10T01:36:28.722Z,2.10
2017-09-10T01:38:56.043Z,2.80
2017-09-10T01:41:23.352Z,2.00
2017-09-10T01:43:50.648Z,2.00
2017-09-10T01:46:17.962Z,2.63
2017-09-10T01:48:45.746Z,2.60
2017-09-10T01:51:13.070Z,2.80
2017-09-10T01:53:40.368Z,2.20
2017-09-10T01:56:07.651Z,2.63
2017-09-10T01:58:35.013Z,2.40
2017-09-10T02:01:02.307Z,2.10
2017-09-10T02:03:29.649Z,2.60
2017-09-10T02:05:56.897Z,3.33
2017-09-10T02:08:24.214Z,2.27
2017-09-10T02:10:51.486Z,2.50
2017-09-10T02:13:18.765Z,2.50
2017-09-10T02:15:46.094Z,2.93
2017-09-10T02:18:13.368Z,2.90
2017-09-10T02:20:40.644Z,2.30
2017-09-10T02:23:07.967Z,2.67
2017-09-10T02:25:35.295Z,2.50
2017-09-10T02:28:02.578Z,2.60
2017-09-10T02:30:29.891Z,2.77
2017-09-10T02:32:57.215Z,2.90
2017-09-10T02:35:24.525Z,3.97
2017-09-10T02:37:51.794Z,4.60
2017-09-10T02:40:19.107Z,4.57
2017-09-10T02:42:46.395Z,6.00
2017-09-10T02:45:13.681Z,5.10
2017-09-10T02:47:40.993Z,6.07
2017-09-10T02:50:08.267Z,7.60
2017-09-10T02:52:35.558Z,6.37
2017-09-10T02:55:02.875Z,6.27
2017-09-10T02:57:30.192Z,8.90
2017-09-10T02:59:57.491Z,7.23
2017-09-10T03:02:24.871Z,7.63
2017-09-10T03:04:52.141Z,9.40
2017-09-10T03:07:19.468Z,8.80
2017-09-10T03:09:46.765Z,7.10
2017-09-10T03:12:14.117Z,6.20
2017-09-10T03:14:41.416Z,6.90
2017-09-10T03:17:08.720Z,7.20
2017-09-10T03:19:35.999Z,6.43
2017-09-10T03:22:03.299Z,7.70
2017-09-10T03:24:30.608Z,7.33
2017-09-10T03:26:57.931Z,6.77
2017-09-10T03:29:25.205Z,9.40
2017-09-10T03:31:52.515Z,6.50
2017-09-10T03:34:19.820Z,6.53
2017-09-10T03:36:47.130Z,7.50
2017-09-10T03:39:14.419Z,6.97
2017-09-10T03:41:41.700Z,6.23
2017-09-10T03:44:09.027Z,6.87
2017-09-10T03:46:36.316Z,7.57
2017-09-10T03:49:03.636Z,6.10
2017-09-10T03:51:30.939Z,6.80
2017-09-10T03:53:58.252Z,10.43
2017-09-10T03:56:25.563Z,7.80
2017-09-10T03:58:52.857Z,5.70
2017-09-10T04:01:20.147Z,8.87
2017-09-10T04:03:47.460Z,7.70
2017-09-10T04:06:14.770Z,7.63
2017-09-10T04:08:42.080Z,7.13
2017-09-10T04:11:09.349Z,6.90
2017-09-10T04:13:36.676Z,6.80
2017-09-10T04:16:04.003Z,9.83
2017-09-10T04:18:31.290Z,6.23
2017-09-10T04:20:58.580Z,9.70
2017-09-10T04:23:25.880Z,7.63
2017-09-10T04:25:53.203Z,9.90
2017-09-10T04:28:20.477Z,7.27
2017-09-10T04:30:47.827Z,7.83
2017-09-10T04:33:15.099Z,6.63
2017-09-10T04:35:42.397Z,6.30
2017-09-10T04:38:09.707Z,6.40
2017-09-10T04:40:36.991Z,6.10
2017-09-10T04:43:04.313Z,7.30
2017-09-10T04:45:31.591Z,6.90
2017-09-10T04:47:58.879Z,7.27
2017-09-10T04:50:26.183Z,6.97
2017-09-10T04:52:53.525Z,7.40
2017-09-10T04:55:20.827Z,6.80
2017-09-10T04:57:48.187Z,7.67
2017-09-10T05:00:15.488Z,7.80
2017-09-10T05:02:42.769Z,7.00
2017-09-10T05:05:10.062Z,7.73
2017-09-10T05:07:37.348Z,7.87
2017-09-10T05:10:04.665Z,9.03
2017-09-10T05:12:31.985Z,10.40
2017-09-10T05:14:59.299Z,7.23
2017-09-10T05:17:26.584Z,9.73
2017-09-10T05:19:53.853Z,7.60
2017-09-10T05:22:21.181Z,10.10
2017-09-10T05:24:48.456Z,7.20
2017-09-10T05:27:15.782Z,8.80
2017-09-10T05:29:43.065Z,6.20
2017-09-10T05:32:10.353Z,7.53
2017-09-10T05:34:37.659Z,8.50
2017-09-10T05:37:04.986Z,7.80
2017-09-10T05:39:32.270Z,6.40
2017-09-10T05:41:59.547Z,5.97
2017-09-10T05:44:26.869Z,6.67
2017-09-10T05:46:54.149Z,7.73
2017-09-10T05:49:21.442Z,7.90
2017-09-10T05:51:48.767Z,5.50
2017-09-10T05:54:16.058Z,5.90
2017-09-10T05:56:43.357Z,6.77
2017-09-10T05:59:10.684Z,5.27
2017-09-10T06:01:37.995Z,7.40
2017-09-10T06:04:05.272Z,7.53
2017-09-10T06:06:32.578Z,7.47
2017-09-10T06:08:59.903Z,7.90
2017-09-10T06:11:27.226Z,7.17
2017-09-10T06:13:54.503Z,7.40
2017-09-10T06:16:21.793Z,7.63
2017-09-10T06:18:49.088Z,8.37
2017-09-10T06:21:16.383Z,5.83
2017-09-10T06:23:43.706Z,6.30
2017-09-10T06:26:11.015Z,5.07
2017-09-10T06:28:38.302Z,5.13
2017-09-10T06:31:05.626Z,6.10
2017-09-10T06:33:32.924Z,5.60
2017-09-10T06:36:00.263Z,5.17
2017-09-10T06:38:27.641Z,5.73
2017-09-10T06:40:54.913Z,4.50
2017-09-10T06:43:22.233Z,5.47
2017-09-10T06:45:49.531Z,4.53
2017-09-10T06:48:16.834Z,5.20
2017-09-10T06:50:44.105Z,5.37
2017-09-10T06:53:11.386Z,5.50
2017-09-10T06:55:38.681Z,4.77
2017-09-10T06:58:05.976Z,4.37
2017-09-10T07:00:33.290Z,5.80
2017-09-10T07:03:00.570Z,5.60
2017-09-10T07:05:27.909Z,4.97
2017-09-10T07:07:55.230Z,5.17
2017-09-10T07:10:22.473Z,4.70
2017-09-10T07:12:49.788Z,5.20
2017-09-10T07:15:17.060Z,4.90
2017-09-10T07:17:44.358Z,5.70
2017-09-10T07:20:11.731Z,5.57
2017-09-10T07:22:38.996Z,6.40
2017-09-10T07:25:06.327Z,5.43
2017-09-10T07:27:33.592Z,5.50
2017-09-10T07:30:00.912Z,6.10
2017-09-10T07:32:28.302Z,4.77
2017-09-10T07:34:55.695Z,4.60
2017-09-10T07:37:22.983Z,5.00
2017-09-10T07:39:50.280Z,5.10
2017-09-10T07:42:17.629Z,4.07
2017-09-10T07:44:44.887Z,4.47
2017-09-10T07:47:12.164Z,4.70
2017-09-10T07:49:39.469Z,4.50
2017-09-10T07:52:06.774Z,3.90
2017-09-10T07:54:34.059Z,4.33
2017-09-10T07:57:01.350Z,4.67
2017-09-10T07:59:28.667Z,3.90
2017-09-10T08:01:55.964Z,4.53
2017-09-10T08:04:23.258Z,3.93
2017-09-10T08:06:50.542Z,3.93
2017-09-10T08:09:17.858Z,3.60
2017-09-10T08:11:45.238Z,3.30
2017-09-10T08:14:12.537Z,3.77
2017-09-10T08:16:39.820Z,3.40
2017-09-10T08:19:07.115Z,3.50
2017-09-10T08:21:34.399Z,4.73
2017-09-10T08:24:01.725Z,3.60
2017-09-10T08:26:29.010Z,3.60
2017-09-10T08:28:56.286Z,3.30
2017-09-10T08:31:23.584Z,3.43
2017-09-10T08:33:50.878Z,3.73
2017-09-10T08:36:18.191Z,3.23
2017-09-10T08:38:45.469Z,3.47
2017-09-10T08:41:12.735Z,3.77
2017-09-10T08:43:40.049Z,3.53
2017-09-10T08:46:07.366Z,3.23
2017-09-10T08:48:35.639Z,3.40
2017-09-10T08:51:02.982Z,3.03
2017-09-10T08:53:30.254Z,2.57
2017-09-10T08:55:57.519Z,2.87
2017-09-10T08:58:24.824Z,2.80
2017-09-10T09:00:52.115Z,2.90
2017-09-10T09:03:19.417Z,2.70
2017-09-10T09:05:46.714Z,3.43
2017-09-10T09:08:14.022Z,2.80
2017-09-10T09:10:41.317Z,2.50
2017-09-10T09:13:08.602Z,3.23
2017-09-10T09:15:35.895Z,2.00
2017-09-10T09:18:03.213Z,2.60
2017-09-10T09:20:30.496Z,2.80
2017-09-10T09:22:57.781Z,3.27
2017-09-10T09:25:25.087Z,2.80
2017-09-10T09:27:52.354Z,3.93
2017-09-10T09:30:19.624Z,3.10
2017-09-10T09:32:46.939Z,3.00
2017-09-10T09:35:14.247Z,2.80
2017-09-10T09:37:41.571Z,3.50
2017-09-10T09:40:08.835Z,3.10
2017-09-10T09:42:36.095Z,3.73
2017-09-10T09:45:03.396Z,3.30
2017-09-10T09:47:30.691Z,3.47
2017-09-10T09:49:57.965Z,3.70
2017-09-10T09:52:25.259Z,3.57
2017-09-10T09:54:52.544Z,4.20
2017-09-10T09:57:19.867Z,3.70
2017-09-10T09:59:51.019Z,3.40
2017-09-10T10:02:19.275Z,2.80
2017-09-10T10:04:46.552Z,3.30
2017-09-10T10:07:14.422Z,3.57
2017-09-10T10:09:41.696Z,3.30
2017-09-10T10:12:08.997Z,2.53
2017-09-10T10:14:36.280Z,2.63
2017-09-10T10:17:03.581Z,2.50
2017-09-10T10:19:30.850Z,2.27
2017-09-10T10:21:58.117Z,2.67
2017-09-10T10:24:25.414Z,2.40
2017-09-10T10:26:52.723Z,2.30
2017-09-10T10:29:20.014Z,2.20
2017-09-10T10:31:47.340Z,2.20
2017-09-10T10:34:14.648Z,2.17
2017-09-10T10:36:41.930Z,2.73
2017-09-10T10:39:09.247Z,2.60
2017-09-10T10:41:36.508Z,2.50
2017-09-10T10:44:04.463Z,2.70
2017-09-10T10:46:31.759Z,2.40
2017-09-10T10:48:59.078Z,1.93
2017-09-10T10:51:26.344Z,2.10
2017-09-10T10:53:53.773Z,2.47
2017-09-10T10:56:21.098Z,2.50
2017-09-10T10:58:48.358Z,2.40
2017-09-10T11:01:15.715Z,2.70
2017-09-10T11:03:43.015Z,2.13
2017-09-10T11:06:10.305Z,2.37
2017-09-10T11:08:37.602Z,2.00
2017-09-10T11:11:04.871Z,2.23
2017-09-10T11:13:32.177Z,2.10
2017-09-10T11:15:59.498Z,1.73
2017-09-10T11:18:26.759Z,2.07
2017-09-10T11:20:54.048Z,2.20
2017-09-10T11:23:21.339Z,2.00
2017-09-10T11:25:48.596Z,2.00
2017-09-10T11:28:15.883Z,2.10
2017-09-10T11:30:43.228Z,2.00
2017-09-10T11:33:10.530Z,1.80
2017-09-10T11:35:37.791Z,2.30
2017-09-10T11:38:05.104Z,2.10
2017-09-10T11:40:32.363Z,2.23
2017-09-10T11:42:59.625Z,2.20
2017-09-10T11:45:26.919Z,2.60
2017-09-10T11:47:54.209Z,2.10
2017-09-10T11:50:21.562Z,2.40
2017-09-10T11:52:48.860Z,2.13
2017-09-10T11:55:16.132Z,2.27
2017-09-10T11:57:43.441Z,2.10
2017-09-10T12:00:10.703Z,1.87
2017-09-10T12:02:37.997Z,2.00
2017-09-10T12:05:05.286Z,2.47
2017-09-10T12:07:32.587Z,2.50
2017-09-10T12:09:59.901Z,2.33
2017-09-10T12:12:27.191Z,2.30
2017-09-10T12:14:54.435Z,2.30
2017-09-10T12:17:21.733Z,2.03
2017-09-10T12:19:48.992Z,2.10
2017-09-10T12:22:16.355Z,2.10
2017-09-10T12:24:43.649Z,2.30
2017-09-10T12:27:10.892Z,2.20
2017-09-10T12:29:38.193Z,2.17
2017-09-10T12:32:05.468Z,2.00
2017-09-10T12:34:32.809Z,1.90
2017-09-10T12:37:00.074Z,2.10
2017-09-10T12:39:27.352Z,1.97
2017-09-10T12:41:54.649Z,2.20
2017-09-10T12:44:21.908Z,1.97
2017-09-10T12:46:49.199Z,2.27
2017-09-10T12:49:16.478Z,3.10
2017-09-10T12:51:43.788Z,1.83
2017-09-10T12:54:11.056Z,2.17
2017-09-10T12:56:38.339Z,1.87
2017-09-10T12:59:05.635Z,1.97
2017-09-10T13:01:32.900Z,2.37
2017-09-10T13:04:00.203Z,1.80
2017-09-10T13:06:27.473Z,1.77
2017-09-10T13:08:54.748Z,1.97
2017-09-10T13:11:22.059Z,2.07
2017-09-10T13:13:49.322Z,2.00
2017-09-10T13:16:16.594Z,1.80
2017-09-10T13:18:43.898Z,2.00
2017-09-10T13:21:11.163Z,2.37
2017-09-10T13:23:38.456Z,2.30
2017-09-10T13:26:05.764Z,2.83
2017-09-10T13:28:33.023Z,3.27
2017-09-10T13:31:00.301Z,3.03
2017-09-10T13:33:27.602Z,3.60
2017-09-10T13:35:54.907Z,4.50
2017-09-10T13:38:22.172Z,4.80
2017-09-10T13:40:49.487Z,4.83
2017-09-10T13:43:16.747Z,5.13
2017-09-10T13:45:44.003Z,5.10
2017-09-10T13:48:11.318Z,5.20
2017-09-10T13:50:38.600Z,6.00
2017-09-10T13:53:05.855Z,5.80
2017-09-10T13:55:33.152Z,5.70
2017-09-10T13:58:00.416Z,6.90
2017-09-10T14:00:27.719Z,6.50
2017-09-10T14:02:54.999Z,6.40
2017-09-10T14:05:22.272Z,7.70
2017-09-10T14:07:49.589Z,6.57
2017-09-10T14:10:16.872Z,7.10
2017-09-10T14:12:44.155Z,7.33
2017-09-10T14:15:11.478Z,7.20
2017-09-10T14:17:38.738Z,6.97
2017-09-10T14:20:06.008Z,7.30
2017-09-10T14:22:33.302Z,6.80
2017-09-10T14:25:00.613Z,6.63
2017-09-10T14:27:27.936Z,6.40
2017-09-10T14:29:55.210Z,7.00
2017-09-10T14:32:22.484Z,7.23
2017-09-10T14:34:49.779Z,6.60
2017-09-10T14:37:17.044Z,6.40
2017-09-10T14:39:44.360Z,6.80
2017-09-10T14:42:11.639Z,7.20
2017-09-10T14:44:38.934Z,7.43
2017-09-10T14:47:06.229Z,6.93
2017-09-10T14:49:33.497Z,7.43
2017-09-10T14:52:00.795Z,7.80
2017-09-10T14:54:28.111Z,8.17
2017-09-10T14:56:55.393Z,8.30
2017-09-10T14:59:22.659Z,8.80
2017-09-10T15:01:49.993Z,9.50
2017-09-10T15:04:17.267Z,9.27
2017-09-10T15:06:44.539Z,9.57
2017-09-10T15:09:11.840Z,9.80
2017-09-10T15:11:39.121Z,10.83
2017-09-10T15:14:06.446Z,10.20
2017-09-10T15:16:33.704Z,10.37
2017-09-10T15:19:01.009Z,11.50
2017-09-10T15:21:28.277Z,10.87
2017-09-10T15:23:55.586Z,10.83
2017-09-10T15:26:22.891Z,11.90
2017-09-10T15:28:50.207Z,12.20
2017-09-10T15:31:17.544Z,10.80
2017-09-10T15:33:44.874Z,11.60
2017-09-10T15:36:12.153Z,9.10
2017-09-10T15:38:39.427Z,10.00
2017-09-10T15:41:06.755Z,10.10
2017-09-10T15:43:34.081Z,10.00
2017-09-10T15:46:01.367Z,10.13
2017-09-10T15:48:28.659Z,7.97
2017-09-10T15:50:55.982Z,9.37
2017-09-10T15:53:23.245Z,8.70
2017-09-10T15:55:50.556Z,8.70
2017-09-10T15:58:17.836Z,7.30
2017-09-10T16:00:45.120Z,7.60
2017-09-10T16:03:12.423Z,7.43
2017-09-10T16:05:39.755Z,7.63
2017-09-10T16:08:07.326Z,8.60
2017-09-10T16:10:34.656Z,8.10
2017-09-10T16:13:01.923Z,8.20
2017-09-10T16:15:29.239Z,8.50
2017-09-10T16:17:56.500Z,8.03
2017-09-10T16:20:23.767Z,7.43
2017-09-10T16:22:51.068Z,7.37
2017-09-10T16:25:18.345Z,7.20
2017-09-10T16:27:45.661Z,7.83
2017-09-10T16:30:12.915Z,7.40
2017-09-10T16:32:40.204Z,8.10
2017-09-10T16:35:07.523Z,11.77
2017-09-10T16:37:34.818Z,9.10
2017-09-10T16:40:02.087Z,8.30
2017-09-10T16:42:29.403Z,8.13
2017-09-10T16:44:56.686Z,8.47
2017-09-10T16:47:23.991Z,7.30
2017-09-10T17:20:57.768Z,6.13
2017-09-10T17:23:25.626Z,6.70
2017-09-10T17:25:52.937Z,6.17
2017-09-10T17:28:20.216Z,5.37
2017-09-10T17:30:47.505Z,6.90
2017-09-10T17:33:14.800Z,6.23
2017-09-10T17:35:42.079Z,5.97
2017-09-10T17:38:09.375Z,5.80
2017-09-10T17:40:36.646Z,5.17
2017-09-10T17:43:03.946Z,5.43
2017-09-10T17:45:31.216Z,5.47
2017-09-10T17:47:58.518Z,5.97
2017-09-10T17:50:25.830Z,5.53
2017-09-10T17:52:53.136Z,5.00
2017-09-10T17:55:20.463Z,5.50
2017-09-10T17:57:47.789Z,5.03
2017-09-10T18:00:15.107Z,5.63
2017-09-10T18:02:42.441Z,4.70
2017-09-10T18:05:09.771Z,5.73
2017-09-10T18:07:37.112Z,5.00
2017-09-10T18:10:04.417Z,5.60
2017-09-10T18:12:31.694Z,5.03
2017-09-10T18:14:59.836Z,5.30
2017-09-10T18:17:27.138Z,5.03
2017-09-10T18:19:54.419Z,4.80
2017-09-10T18:22:21.723Z,5.07
2017-09-10T18:24:49.043Z,5.30
2017-09-10T18:27:16.333Z,5.47
2017-09-10T18:29:43.616Z,5.07
2017-09-10T18:32:10.937Z,5.90
2017-09-10T18:34:38.202Z,5.00
2017-09-10T18:37:05.495Z,5.23
2017-09-10T18:39:32.803Z,4.67
2017-09-10T18:42:00.121Z,5.20
2017-09-10T18:44:27.411Z,4.87
2017-09-10T18:46:54.688Z,4.50
2017-09-10T18:49:22.154Z,4.83
2017-09-10T18:51:49.725Z,4.20
2017-09-10T18:54:17.284Z,4.40
2017-09-10T18:56:44.894Z,3.83
2017-09-10T18:59:12.507Z,5.10
2017-09-10T19:01:39.874Z,4.07
2017-09-10T19:04:07.176Z,4.10
2017-09-10T19:06:34.593Z,4.20
2017-09-10T19:09:03.114Z,3.95
2017-09-10T19:11:30.648Z,5.43
2017-09-10T19:13:59.082Z,3.97
2017-09-10T19:16:26.539Z,4.00
2017-09-10T19:18:54.101Z,3.60
2017-09-10T19:21:21.688Z,5.20
2017-09-10T19:23:50.325Z,4.40
2017-09-10T19:26:17.828Z,4.20
2017-09-10T19:28:45.346Z,4.13
2017-09-10T19:31:12.719Z,3.97
2017-09-10T19:33:40.007Z,3.77
2017-09-10T19:36:07.315Z,3.73
2017-09-10T19:38:34.691Z,4.37
2017-09-10T19:41:01.986Z,3.77
2017-09-10T19:43:29.256Z,4.40
2017-09-10T19:45:56.552Z,3.87
2017-09-10T19:48:23.808Z,4.47
2017-09-10T19:50:51.163Z,3.90
2017-09-10T19:53:18.478Z,3.77
2017-09-10T19:55:45.746Z,3.43
2017-09-10T19:58:13.064Z,3.73
2017-09-10T20:00:40.336Z,3.53
2017-09-10T20:03:07.657Z,3.70
2017-09-10T20:05:34.973Z,4.00
2017-09-10T20:08:02.266Z,3.53
2017-09-10T20:10:29.734Z,4.50
2017-09-10T20:12:57.412Z,3.50
2017-09-10T20:15:25.087Z,4.80
2017-09-10T20:17:52.649Z,3.53
2017-09-10T20:20:20.213Z,3.70
2017-09-10T20:22:47.762Z,4.00
2017-09-10T20:25:15.334Z,4.00
2017-09-10T20:27:43.016Z,3.17
2017-09-10T20:30:10.736Z,4.07
2017-09-10T20:32:38.724Z,3.40
2017-09-10T20:35:06.240Z,4.27
2017-09-10T20:37:33.801Z,3.70
2017-09-10T20:40:01.992Z,3.67
2017-09-10T20:42:29.510Z,3.90
2017-09-10T20:44:57.191Z,4.20
2017-09-10T20:47:24.870Z,3.80
2017-09-10T20:49:52.379Z,4.10
2017-09-10T20:52:20.272Z,4.70
2017-09-10T20:54:47.846Z,4.17
2017-09-10T20:57:15.402Z,3.70
2017-09-10T20:59:42.722Z,3.23
2017-09-10T21:02:10.039Z,3.20
2017-09-10T21:04:37.337Z,3.10
2017-09-10T21:07:04.615Z,3.10
2017-09-10T21:09:31.957Z,3.43
2017-09-10T21:11:59.208Z,3.73
2017-09-10T21:14:26.548Z,4.00
2017-09-10T21:16:53.825Z,3.10
2017-09-10T21:19:21.100Z,3.30
2017-09-10T21:21:48.424Z,3.00
2017-09-10T21:24:15.732Z,3.10
2017-09-10T21:26:43.053Z,3.83
2017-09-10T21:29:10.320Z,5.93
2017-09-10T21:31:37.627Z,3.60
2017-09-10T21:34:04.963Z,4.50
2017-09-10T21:36:32.247Z,3.13
2017-09-10T21:38:59.570Z,3.10
2017-09-10T21:41:27.727Z,2.77
2017-09-10T21:43:54.996Z,3.23
2017-09-10T21:46:22.287Z,2.40
2017-09-10T21:48:49.620Z,2.90
2017-09-10T21:51:16.870Z,2.60
2017-09-10T21:53:44.211Z,2.57
2017-09-10T21:56:11.603Z,2.40
2017-09-10T21:58:39.705Z,3.10
2017-09-10T22:01:07.338Z,2.50
2017-09-10T22:03:34.745Z,3.13
2017-09-10T22:06:02.065Z,2.87
2017-09-10T22:08:29.387Z,3.63
2017-09-10T22:10:57.258Z,3.60
2017-09-10T22:13:24.636Z,3.03
2017-09-10T22:15:52.172Z,3.40
2017-09-10T22:18:19.510Z,2.90
2017-09-10T22:20:46.831Z,3.00
2017-09-10T22:23:14.128Z,3.60
2017-09-10T22:25:41.418Z,3.40
2017-09-10T22:28:08.722Z,3.73
2017-09-10T22:30:36.008Z,3.20
2017-09-10T22:33:03.306Z,3.40
2017-09-10T22:35:30.568Z,3.27
2017-09-10T22:37:57.956Z,2.50
2017-09-10T22:40:25.277Z,3.87
2017-09-10T22:42:52.573Z,3.20
2017-09-10T22:45:19.911Z,3.50
2017-09-10T22:47:47.207Z,2.17
2017-09-10T22:50:14.641Z,2.47
2017-09-10T22:52:42.004Z,2.87
2017-09-10T22:55:09.374Z,2.67
2017-09-10T22:57:36.708Z,2.73
2017-09-10T23:00:04.020Z,2.90
2017-09-10T23:02:31.133Z,2.67
2017-09-10T23:04:58.493Z,2.70
2017-09-10T23:07:25.806Z,3.00
2017-09-10T23:09:53.128Z,3.47
2017-09-10T23:12:20.434Z,2.90
2017-09-10T23:14:47.744Z,2.37
2017-09-10T23:17:15.015Z,2.70
2017-09-10T23:19:42.348Z,2.70
2017-09-10T23:22:09.647Z,2.67
2017-09-10T23:24:36.967Z,2.70
2017-09-10T23:27:04.299Z,2.80
2017-09-10T23:29:31.603Z,2.70
2017-09-10T23:31:58.953Z,2.53
2017-09-10T23:34:26.274Z,3.10
2017-09-10T23:36:54.146Z,3.00
2017-09-10T23:39:21.427Z,2.23
2017-09-10T23:41:48.738Z,2.30
2017-09-10T23:44:16.015Z,3.13
2017-09-10T23:46:43.375Z,2.80
2017-09-10T23:49:10.675Z,3.07
2017-09-10T23:51:37.995Z,2.43
2017-09-10T23:54:05.351Z,2.50
2017-09-10T23:56:32.728Z,2.13
